Time;durP1;ratioP1;P1;durP2;ratioP2;P2;SDS_P1;SDS_P2;PMS_P1;PMS_P2;Temp;Humidity;BMP_temperature;BMP_pressure;BME280_temperature;BME280_humidity;BME280_pressure;Samples;Min_cycle;Max_cycle;Signal;HPM_P1;HPM_P2
2023/05/09 00:01:05;;;;;;;7.15;4.68;;;7.30;99.90;;;;;;6222963;23;20183;-81
2023/05/09 00:03:32;;;;;;;5.57;4.55;;;7.20;99.90;;;;;;6224429;23;20167;-84
2023/05/09 00:06:00;;;;;;;5.90;4.95;;;7.20;99.90;;;;;;6223918;23;20234;-84
2023/05/09 00:08:26;;;;;;;8.93;5.40;;;7.10;99.90;;;;;;6197222;23;20185;-86
2023/05/09 00:10:53;;;;;;;5.85;4.85;;;7.10;99.90;;;;;;6222925;23;20184;-80
2023/05/09 00:13:20;;;;;;;4.88;4.47;;;7.00;99.90;;;;;;6223514;23;20179;-82
2023/05/09 00:15:47;;;;;;;6.85;4.90;;;7.00;99.90;;;;;;6225415;23;20209;-82
2023/05/09 00:18:14;;;;;;;5.65;5.15;;;7.10;99.90;;;;;;6224280;23;20184;-82
2023/05/09 00:20:43;;;;;;;10.98;4.90;;;7.00;99.90;;;;;;6224793;23;20493;-81
2023/05/09 00:23:09;;;;;;;8.52;6.15;;;7.00;99.90;;;;;;6222753;23;20380;-84
2023/05/09 00:25:37;;;;;;;5.57;4.47;;;6.90;99.90;;;;;;6221205;23;20519;-84
2023/05/09 00:28:04;;;;;;;7.78;4.93;;;6.80;99.90;;;;;;6222066;23;20710;-83
2023/05/09 00:30:30;;;;;;;9.30;5.32;;;6.80;99.90;;;;;;6222995;23;20176;-83
2023/05/09 00:32:58;;;;;;;8.25;6.00;;;6.80;99.90;;;;;;6222353;23;20184;-85
2023/05/09 00:35:24;;;;;;;7.90;6.07;;;6.70;99.90;;;;;;6221720;23;20207;-87
2023/05/09 00:37:51;;;;;;;6.93;4.85;;;6.60;99.90;;;;;;6228367;23;20223;-85
2023/05/09 00:40:18;;;;;;;6.00;5.40;;;6.60;99.90;;;;;;6241148;23;20187;-83
2023/05/09 00:42:45;;;;;;;5.78;4.53;;;6.60;99.90;;;;;;6242532;23;20170;-81
2023/05/09 00:45:12;;;;;;;7.90;4.80;;;6.50;99.90;;;;;;6233237;23;20365;-85
2023/05/09 00:47:39;;;;;;;6.10;5.00;;;6.40;99.90;;;;;;6223759;23;20491;-85
2023/05/09 00:50:08;;;;;;;5.53;4.82;;;6.70;99.90;;;;;;6222986;23;20186;-84
2023/05/09 00:52:35;;;;;;;9.10;4.88;;;6.50;99.90;;;;;;6222578;23;20223;-85
2023/05/09 00:55:03;;;;;;;6.85;4.47;;;6.50;99.90;;;;;;6222018;23;20228;-82
2023/05/09 00:57:31;;;;;;;9.20;5.47;;;6.40;99.90;;;;;;6222030;23;20495;-86
2023/05/09 00:59:58;;;;;;;6.50;5.90;;;6.40;99.90;;;;;;6222145;23;20191;-84
2023/05/09 01:02:26;;;;;;;6.70;5.72;;;6.30;99.90;;;;;;6222720;23;20214;-79
2023/05/09 01:04:53;;;;;;;8.45;6.03;;;6.40;99.90;;;;;;6221383;23;20563;-84
2023/05/09 01:07:37;;;;;;;8.27;4.80;;;6.40;99.90;;;;;;6221268;23;20192;-83
2023/05/09 01:10:29;;;;;;;6.50;4.93;;;6.30;99.90;;;;;;6222912;23;20524;-84
2023/05/09 01:13:15;;;;;;;6.47;5.78;;;6.30;99.90;;;;;;6223097;23;20254;-83
2023/05/09 01:15:51;;;;;;;12.73;6.63;;;6.40;99.90;;;;;;6223224;23;20192;-83
2023/05/09 01:18:44;;;;;;;7.55;4.65;;;6.30;99.90;;;;;;6222466;23;20163;-84
2023/05/09 01:21:19;;;;;;;7.18;4.85;;;6.30;99.90;;;;;;6182484;23;20191;-80
2023/05/09 01:24:08;;;;;;;7.68;5.20;;;6.30;99.90;;;;;;6223415;23;20164;-82
2023/05/09 01:27:00;;;;;;;5.88;5.28;;;6.40;99.90;;;;;;6224139;23;20164;-82
2023/05/09 01:29:42;;;;;;;6.47;5.20;;;6.30;99.90;;;;;;6225250;23;20168;-81
2023/05/09 01:32:18;;;;;;;7.53;4.75;;;6.20;99.90;;;;;;6225233;23;20160;-89
2023/05/09 01:34:47;;;;;;;8.13;5.82;;;6.20;99.90;;;;;;6230767;23;20159;-86
2023/05/09 01:37:17;;;;;;;5.95;5.32;;;6.20;99.90;;;;;;6241229;23;20202;-85
2023/05/09 01:39:51;;;;;;;8.63;5.28;;;6.10;99.90;;;;;;6242529;23;20155;-84
2023/05/09 01:42:20;;;;;;;6.72;5.60;;;6.00;99.90;;;;;;6241554;23;20167;-82
2023/05/09 01:44:48;;;;;;;5.93;4.60;;;6.00;99.90;;;;;;6241610;23;20160;-81
2023/05/09 01:47:17;;;;;;;8.48;6.88;;;5.90;99.90;;;;;;6241224;23;20178;-90
2023/05/09 01:49:46;;;;;;;7.53;4.78;;;5.90;99.90;;;;;;6240825;23;20188;-86
2023/05/09 01:52:16;;;;;;;8.70;5.65;;;5.90;99.90;;;;;;6240059;23;20183;-89
2023/05/09 01:54:44;;;;;;;8.88;5.85;;;6.00;99.90;;;;;;6240414;23;20614;-83
2023/05/09 01:57:13;;;;;;;11.18;6.47;;;5.90;99.90;;;;;;6238848;23;20195;-86
2023/05/09 01:59:42;;;;;;;11.32;5.25;;;5.80;99.90;;;;;;6238247;23;20166;-87
2023/05/09 02:02:11;;;;;;;5.68;4.90;;;5.70;99.90;;;;;;6235558;23;20167;-86
2023/05/09 02:04:40;;;;;;;7.32;6.60;;;5.90;99.90;;;;;;6229138;23;20192;-83
2023/05/09 02:07:11;;;;;;;9.65;6.00;;;5.90;99.90;;;;;;6226188;23;20170;-84
2023/05/09 02:09:38;;;;;;;5.70;5.10;;;5.90;99.90;;;;;;6224444;23;20188;-87
2023/05/09 02:12:05;;;;;;;6.60;5.90;;;5.70;99.90;;;;;;6225125;23;20230;-83
2023/05/09 02:14:32;;;;;;;8.80;5.97;;;5.60;99.90;;;;;;6196609;23;20384;-81
2023/05/09 02:17:05;;;;;;;9.02;6.18;;;5.70;99.90;;;;;;6222621;23;20202;-82
2023/05/09 02:19:34;;;;;;;7.55;6.38;;;5.60;99.90;;;;;;6223731;23;20175;-84
2023/05/09 02:22:01;;;;;;;5.47;4.88;;;5.70;99.90;;;;;;6192377;23;20570;-85
2023/05/09 02:24:30;;;;;;;10.13;5.78;;;5.60;99.90;;;;;;6193462;23;20231;-87
2023/05/09 02:27:06;;;;;;;10.70;6.10;;;5.60;99.90;;;;;;6194559;23;20621;-83
2023/05/09 02:29:41;;;;;;;11.13;7.00;;;5.70;99.90;;;;;;6192260;23;20168;-82
2023/05/09 02:32:25;;;;;;;10.90;6.53;;;5.70;99.90;;;;;;6192879;23;20168;-81
2023/05/09 02:34:54;;;;;;;10.90;6.55;;;5.60;99.90;;;;;;6193073;23;20169;-84
2023/05/09 02:37:23;;;;;;;9.15;6.22;;;5.50;99.90;;;;;;6191278;23;20203;-83
2023/05/09 02:39:50;;;;;;;9.25;6.18;;;5.50;99.90;;;;;;6191894;23;20176;-85
2023/05/09 02:42:24;;;;;;;10.02;6.43;;;5.40;99.90;;;;;;6193281;23;20181;-82
2023/05/09 02:44:54;;;;;;;7.65;5.53;;;5.30;99.90;;;;;;6195274;23;20189;-83
2023/05/09 02:47:21;;;;;;;6.78;6.07;;;5.20;99.90;;;;;;6197326;23;20184;-82
2023/05/09 02:49:48;;;;;;;7.85;6.30;;;5.20;99.90;;;;;;6198730;23;20177;-83
2023/05/09 02:52:15;;;;;;;8.70;6.70;;;5.10;99.90;;;;;;6197924;23;20177;-85
2023/05/09 02:54:47;;;;;;;8.55;7.13;;;5.10;99.90;;;;;;6201359;23;20176;-82
2023/05/09 02:57:14;;;;;;;7.85;6.40;;;5.30;99.90;;;;;;6196082;23;20220;-87
2023/05/09 02:59:41;;;;;;;6.88;6.18;;;5.40;99.90;;;;;;6202628;23;20203;-90
2023/05/09 03:02:08;;;;;;;13.60;6.68;;;5.30;99.90;;;;;;6211773;23;20187;-84
2023/05/09 03:04:35;;;;;;;7.88;6.85;;;5.40;99.90;;;;;;6213896;23;20212;-84
2023/05/09 03:07:02;;;;;;;6.90;6.18;;;5.40;99.90;;;;;;6200122;23;20189;-81
2023/05/09 03:09:29;;;;;;;11.55;5.85;;;5.30;99.90;;;;;;6195129;23;20184;-82
2023/05/09 03:11:56;;;;;;;7.85;6.53;;;5.30;99.90;;;;;;6194794;23;20191;-86
2023/05/09 03:14:23;;;;;;;7.57;6.00;;;5.30;99.90;;;;;;6194735;23;20243;-81
2023/05/09 03:16:50;;;;;;;15.02;6.53;;;5.40;99.90;;;;;;6193381;23;20212;-85
2023/05/09 03:19:17;;;;;;;6.63;5.93;;;5.30;99.90;;;;;;6193463;23;20179;-84
2023/05/09 03:21:43;;;;;;;11.95;6.88;;;5.40;99.90;;;;;;6216669;23;20195;-84
2023/05/09 03:24:10;;;;;;;9.90;7.18;;;5.30;99.90;;;;;;6196869;23;20195;-84
2023/05/09 03:26:38;;;;;;;8.93;6.30;;;5.30;99.90;;;;;;6223143;23;20188;-86
2023/05/09 03:29:05;;;;;;;14.02;6.97;;;5.30;99.90;;;;;;6223005;23;20198;-84
2023/05/09 03:31:32;;;;;;;7.18;6.47;;;5.20;99.90;;;;;;6224461;23;20364;-86
2023/05/09 03:33:59;;;;;;;9.07;7.05;;;5.30;99.90;;;;;;6224285;23;20184;-83
2023/05/09 03:36:26;;;;;;;8.55;6.95;;;5.40;99.90;;;;;;6222271;23;20196;-86
2023/05/09 03:38:53;;;;;;;13.50;7.32;;;5.30;99.90;;;;;;6222171;23;20345;-84
2023/05/09 03:41:20;;;;;;;7.65;5.95;;;5.30;99.90;;;;;;6221156;23;20206;-84
2023/05/09 03:43:47;;;;;;;11.52;6.45;;;5.40;99.90;;;;;;6225135;23;20234;-89
2023/05/09 03:46:14;;;;;;;9.25;6.80;;;5.50;99.90;;;;;;6222876;23;20181;-82
2023/05/09 03:48:41;;;;;;;9.90;6.80;;;5.70;99.90;;;;;;6194231;23;20187;-87
2023/05/09 03:51:08;;;;;;;9.13;8.05;;;5.80;99.90;;;;;;6220853;23;20206;-81
2023/05/09 03:53:35;;;;;;;7.22;6.53;;;5.80;99.90;;;;;;6220893;23;20184;-83
2023/05/09 03:56:02;;;;;;;6.55;5.93;;;5.90;99.90;;;;;;6222320;23;20175;-82
2023/05/09 03:58:28;;;;;;;12.95;6.05;;;5.80;99.90;;;;;;6222781;23;20184;-81
2023/05/09 04:00:55;;;;;;;10.10;6.80;;;6.10;99.90;;;;;;6223519;23;20334;-82
2023/05/09 04:03:22;;;;;;;10.65;7.07;;;6.10;99.90;;;;;;6223047;23;20699;-84
2023/05/09 04:05:49;;;;;;;11.10;5.90;;;6.20;99.90;;;;;;6221668;23;20175;-87
2023/05/09 04:08:16;;;;;;;6.90;5.45;;;6.30;99.90;;;;;;6222662;23;20237;-87
2023/05/09 04:10:43;;;;;;;6.55;5.63;;;6.20;99.90;;;;;;6224583;23;20254;-89
2023/05/09 04:13:10;;;;;;;10.70;6.63;;;6.30;99.90;;;;;;6224771;23;20198;-85
2023/05/09 04:15:37;;;;;;;12.38;7.22;;;6.40;99.90;;;;;;6222740;23;20183;-83
2023/05/09 04:18:04;;;;;;;9.93;6.50;;;6.50;99.90;;;;;;6221580;23;20204;-87
2023/05/09 04:20:31;;;;;;;12.20;6.97;;;6.70;99.90;;;;;;6222322;23;20743;-84
2023/05/09 04:22:58;;;;;;;10.15;6.28;;;6.90;99.90;;;;;;6224239;23;20194;-82
2023/05/09 04:25:25;;;;;;;10.35;6.95;;;6.90;99.90;;;;;;6228147;23;20216;-81
2023/05/09 04:27:52;;;;;;;7.90;6.75;;;6.90;99.90;;;;;;6234763;23;20222;-81
2023/05/09 04:30:20;;;;;;;7.68;6.45;;;6.80;99.90;;;;;;6208122;23;20180;-82
2023/05/09 04:32:47;;;;;;;8.88;6.65;;;7.00;99.90;;;;;;6226664;23;20180;-83
2023/05/09 04:35:14;;;;;;;6.53;5.85;;;7.10;99.90;;;;;;6222634;23;20184;-86
2023/05/09 04:37:46;;;;;;;8.40;6.72;;;7.10;99.90;;;;;;6220317;23;20197;-85
2023/05/09 04:40:13;;;;;;;11.48;7.82;;;7.20;99.90;;;;;;6195301;23;20178;-83
2023/05/09 04:42:41;;;;;;;12.00;5.53;;;7.40;99.90;;;;;;6219958;23;20212;-81
2023/05/09 04:45:10;;;;;;;7.97;5.72;;;7.50;99.90;;;;;;6220112;23;20242;-85
2023/05/09 04:47:37;;;;;;;8.25;6.32;;;7.50;99.90;;;;;;6236467;23;20208;-82
2023/05/09 04:50:04;;;;;;;9.90;5.80;;;7.50;99.90;;;;;;6216204;23;20170;-84
2023/05/09 04:52:32;;;;;;;9.05;6.95;;;7.50;99.90;;;;;;6236319;22;20229;-85
2023/05/09 04:54:59;;;;;;;10.88;6.85;;;7.70;99.90;;;;;;6200585;23;20188;-84
2023/05/09 04:57:25;;;;;;;8.35;6.80;;;7.80;99.90;;;;;;6223541;23;20207;-87
2023/05/09 04:59:52;;;;;;;8.63;5.20;;;7.90;99.90;;;;;;6220462;23;20272;-84
2023/05/09 05:02:21;;;;;;;8.90;5.72;;;8.00;99.90;;;;;;6219566;23;20513;-84
2023/05/09 05:04:47;;;;;;;7.47;5.65;;;8.10;99.90;;;;;;6194513;23;20224;-87
2023/05/09 05:07:14;;;;;;;9.68;6.60;;;8.20;99.90;;;;;;6221980;23;20244;-83
2023/05/09 05:09:41;;;;;;;8.75;5.90;;;8.30;99.90;;;;;;6221983;23;20185;-84
2023/05/09 05:12:08;;;;;;;10.10;5.68;;;8.40;99.90;;;;;;6195043;23;20236;-86
2023/05/09 05:14:35;;;;;;;7.75;5.55;;;8.50;99.90;;;;;;6220685;23;20216;-83
2023/05/09 05:17:02;;;;;;;6.97;6.28;;;8.60;99.90;;;;;;6220131;23;20206;-83
2023/05/09 05:19:31;;;;;;;6.80;5.38;;;8.70;99.90;;;;;;6219563;23;20434;-84
2023/05/09 05:21:58;;;;;;;6.82;5.28;;;8.70;99.90;;;;;;6218623;23;20207;-82
2023/05/09 05:24:25;;;;;;;7.53;5.53;;;8.80;99.90;;;;;;6220688;23;20186;-86
2023/05/09 05:26:52;;;;;;;7.90;5.32;;;8.90;99.90;;;;;;6217605;23;20499;-84
2023/05/09 05:29:19;;;;;;;6.82;5.55;;;9.10;99.90;;;;;;6219055;23;20194;-87
2023/05/09 05:31:47;;;;;;;15.63;6.50;;;9.20;99.90;;;;;;6220779;23;20180;-83
2023/05/09 05:34:15;;;;;;;7.00;5.63;;;9.20;99.90;;;;;;6222101;23;20187;-82
2023/05/09 05:36:42;;;;;;;10.40;5.70;;;9.40;99.90;;;;;;6221372;23;20519;-86
2023/05/09 05:39:09;;;;;;;6.90;6.13;;;9.50;99.90;;;;;;6224422;23;20184;-84
2023/05/09 05:41:36;;;;;;;8.73;5.75;;;9.60;99.90;;;;;;6224589;23;20184;-84
2023/05/09 05:44:03;;;;;;;8.68;5.82;;;9.70;99.90;;;;;;6223225;23;20472;-82
2023/05/09 05:46:30;;;;;;;9.93;6.00;;;9.90;99.90;;;;;;6222564;23;20367;-84
2023/05/09 05:48:57;;;;;;;6.45;5.30;;;10.10;99.90;;;;;;6222333;23;20183;-83
2023/05/09 05:51:24;;;;;;;8.65;5.93;;;10.10;99.90;;;;;;6220899;23;20191;-81
2023/05/09 05:53:51;;;;;;;8.65;5.80;;;10.30;99.90;;;;;;6222291;23;20354;-86
2023/05/09 05:56:17;;;;;;;7.15;6.45;;;10.50;99.90;;;;;;6223770;23;20167;-82
2023/05/09 05:58:44;;;;;;;6.25;5.65;;;10.60;99.90;;;;;;6224732;23;20183;-85
2023/05/09 06:01:12;;;;;;;5.55;5.03;;;10.80;99.90;;;;;;6223821;23;20179;-84
2023/05/09 06:03:40;;;;;;;7.00;5.75;;;11.20;99.90;;;;;;6223655;23;20176;-85
2023/05/09 06:06:06;;;;;;;7.00;5.47;;;11.10;99.90;;;;;;6224159;23;20200;-84
2023/05/09 06:08:34;;;;;;;12.20;6.60;;;11.10;99.90;;;;;;6199091;23;20180;-83
2023/05/09 06:11:00;;;;;;;6.75;5.22;;;11.30;99.90;;;;;;6223645;23;20183;-84
2023/05/09 06:13:28;;;;;;;5.63;5.00;;;11.30;99.90;;;;;;6223508;23;20507;-84
2023/05/09 06:15:56;;;;;;;8.98;5.43;;;11.40;99.90;;;;;;6223839;23;20184;-86
2023/05/09 06:18:36;;;;;;;6.20;4.80;;;11.50;99.90;;;;;;6223734;23;20184;-83
2023/05/09 06:21:03;;;;;;;10.32;6.25;;;11.60;99.90;;;;;;6197157;23;20218;-85
2023/05/09 06:23:30;;;;;;;6.03;5.22;;;11.70;99.90;;;;;;6224996;23;20467;-82
2023/05/09 06:25:57;;;;;;;6.35;5.30;;;12.00;99.90;;;;;;6223533;23;20631;-86
2023/05/09 06:28:24;;;;;;;5.47;4.85;;;12.30;99.90;;;;;;6222319;23;20372;-85
2023/05/09 06:30:51;;;;;;;6.22;5.63;;;12.60;99.90;;;;;;6223029;23;20368;-85
2023/05/09 06:33:18;;;;;;;4.97;4.43;;;12.80;99.90;;;;;;6223592;23;20199;-83
2023/05/09 06:35:45;;;;;;;5.80;4.60;;;13.10;99.90;;;;;;6223404;23;20191;-85
2023/05/09 06:38:12;;;;;;;6.20;5.57;;;13.20;99.90;;;;;;6223185;23;20207;-82
2023/05/09 06:40:39;;;;;;;6.75;4.38;;;13.40;99.90;;;;;;6227795;23;20191;-83
2023/05/09 06:43:06;;;;;;;6.45;4.18;;;13.80;99.90;;;;;;6227795;23;20234;-85
2023/05/09 06:45:34;;;;;;;7.28;5.35;;;13.70;99.90;;;;;;6224305;23;20188;-84
2023/05/09 06:48:02;;;;;;;4.53;4.00;;;13.50;99.90;;;;;;6221545;23;20175;-87
2023/05/09 06:50:31;;;;;;;5.40;3.90;;;13.40;99.90;;;;;;6223412;23;20188;-85
2023/05/09 06:52:58;;;;;;;5.55;4.55;;;13.70;99.90;;;;;;6223114;23;20190;-82
2023/05/09 06:55:27;;;;;;;3.47;3.17;;;14.30;99.90;;;;;;6198089;23;20192;-86
2023/05/09 06:57:54;;;;;;;5.60;4.15;;;14.30;99.90;;;;;;6223207;23;20195;-86
2023/05/09 07:00:23;;;;;;;4.93;3.60;;;14.30;99.90;;;;;;6223723;23;20199;-82
2023/05/09 07:02:50;;;;;;;7.73;5.50;;;14.80;99.90;;;;;;6221108;23;20192;-85
2023/05/09 07:05:18;;;;;;;5.03;4.53;;;15.60;99.90;;;;;;6222480;23;20392;-85
2023/05/09 07:07:45;;;;;;;4.57;3.97;;;15.90;99.90;;;;;;6223969;23;20396;-85
2023/05/09 07:10:12;;;;;;;3.87;3.57;;;16.10;99.90;;;;;;6225292;23;20471;-85
2023/05/09 07:12:40;;;;;;;8.00;3.97;;;15.80;99.90;;;;;;6225635;23;20368;-83
2023/05/09 07:15:07;;;;;;;5.90;3.97;;;16.90;99.90;;;;;;6225124;23;20376;-85
2023/05/09 07:17:35;;;;;;;7.57;4.00;;;17.60;99.90;;;;;;6223991;23;20431;-85
2023/05/09 07:20:03;;;;;;;3.33;3.03;;;18.70;99.90;;;;;;6229712;23;20458;-83
2023/05/09 07:22:30;;;;;;;5.30;3.63;;;20.10;99.90;;;;;;6230923;23;20371;-81
2023/05/09 07:25:01;;;;;;;5.03;3.83;;;19.80;99.90;;;;;;6236038;23;20424;-84
2023/05/09 07:27:28;;;;;;;3.27;3.00;;;20.20;99.70;;;;;;6236370;23;20372;-84
2023/05/09 07:29:54;;;;;;;3.43;3.20;;;19.40;99.70;;;;;;6205510;23;20417;-84
2023/05/09 07:32:22;;;;;;;4.13;3.47;;;19.20;99.90;;;;;;6224263;23;20756;-86
2023/05/09 07:34:48;;;;;;;5.90;3.70;;;19.70;99.30;;;;;;6224072;23;20419;-86
2023/05/09 07:37:16;;;;;;;3.70;3.23;;;19.80;98.70;;;;;;6223625;23;20503;-85
2023/05/09 07:39:43;;;;;;;5.30;3.63;;;18.80;99.90;;;;;;6224956;23;20401;-86
2023/05/09 07:42:10;;;;;;;4.97;3.57;;;20.00;98.60;;;;;;6222738;23;20372;-83
2023/05/09 07:44:37;;;;;;;4.40;3.60;;;21.20;94.10;;;;;;6226642;23;20428;-86
2023/05/09 07:47:04;;;;;;;6.53;3.30;;;22.20;91.20;;;;;;6226886;23;20406;-84
2023/05/09 07:49:31;;;;;;;4.43;3.07;;;21.80;88.40;;;;;;6226159;23;20376;-82
2023/05/09 07:51:58;;;;;;;5.53;4.00;;;20.50;91.70;;;;;;6225876;23;20417;-83
2023/05/09 07:54:25;;;;;;;6.33;2.70;;;19.60;93.40;;;;;;6225826;23;20413;-83
2023/05/09 07:56:53;;;;;;;5.20;4.20;;;19.70;93.50;;;;;;6226690;23;20401;-83
2023/05/09 07:59:20;;;;;;;4.90;2.60;;;20.30;92.60;;;;;;6199936;23;20394;-83
2023/05/09 08:01:47;;;;;;;3.97;3.57;;;20.60;90.80;;;;;;6226422;23;20424;-83
2023/05/09 08:04:17;;;;;;;7.93;3.60;;;21.10;89.20;;;;;;6226444;23;20456;-83
2023/05/09 08:06:43;;;;;;;6.43;2.70;;;21.50;86.40;;;;;;6226414;23;20460;-86
2023/05/09 08:09:10;;;;;;;3.87;3.47;;;21.20;86.20;;;;;;6226704;23;20739;-85
2023/05/09 08:11:37;;;;;;;3.13;2.80;;;21.80;82.60;;;;;;6224802;23;20397;-86
2023/05/09 08:14:04;;;;;;;11.13;3.20;;;20.70;84.20;;;;;;6198504;23;20455;-84
2023/05/09 08:16:31;;;;;;;3.40;2.90;;;21.30;83.90;;;;;;6225083;23;20393;-85
2023/05/09 08:18:58;;;;;;;5.17;3.77;;;21.60;81.70;;;;;;6223971;23;20440;-83
2023/05/09 08:21:28;;;;;;;6.00;3.83;;;21.60;80.10;;;;;;6225969;23;20424;-85
2023/05/09 08:23:54;;;;;;;3.33;2.80;;;21.80;77.70;;;;;;6229649;23;20405;-83
2023/05/09 08:26:22;;;;;;;5.63;3.37;;;22.30;75.70;;;;;;6224426;23;20734;-88
2023/05/09 08:28:49;;;;;;;3.17;2.90;;;21.80;78.60;;;;;;6223610;23;20397;-86
2023/05/09 08:31:16;;;;;;;3.80;3.37;;;21.90;75.50;;;;;;6222382;23;20389;-86
2023/05/09 08:33:45;;;;;;;3.50;3.23;;;20.30;80.40;;;;;;6196452;23;20382;-84
2023/05/09 08:36:13;;;;;;;5.77;3.37;;;20.70;82.50;;;;;;6222634;23;20594;-85
2023/05/09 08:38:40;;;;;;;5.53;4.33;;;21.40;80.60;;;;;;6222074;23;20491;-85
2023/05/09 08:41:07;;;;;;;3.93;3.50;;;22.10;76.40;;;;;;6221816;23;20397;-84
2023/05/09 08:43:35;;;;;;;5.63;3.73;;;22.50;73.80;;;;;;6196083;23;20410;-87
2023/05/09 08:46:07;;;;;;;4.27;3.30;;;22.70;74.70;;;;;;6222401;23;20623;-84
2023/05/09 08:48:38;;;;;;;3.57;3.27;;;22.70;71.30;;;;;;6229010;23;20394;-82
2023/05/09 08:51:06;;;;;;;4.57;4.17;;;22.20;74.00;;;;;;6235500;23;20425;-82
2023/05/09 08:53:34;;;;;;;5.10;3.10;;;22.80;70.90;;;;;;6235009;23;20409;-83
2023/05/09 08:56:03;;;;;;;8.63;3.57;;;22.50;71.10;;;;;;6228160;23;20413;-81
2023/05/09 08:58:30;;;;;;;3.37;3.07;;;22.10;72.60;;;;;;6198379;23;20456;-82
2023/05/09 09:00:58;;;;;;;4.30;3.27;;;22.40;72.30;;;;;;6224235;23;20405;-82
2023/05/09 09:03:25;;;;;;;4.23;3.70;;;22.40;71.40;;;;;;6222697;23;20426;-85
2023/05/09 09:05:53;;;;;;;26.57;7.10;;;22.60;72.40;;;;;;6223395;23;20400;-83
2023/05/09 09:08:21;;;;;;;5.90;4.00;;;22.60;71.30;;;;;;6225752;23;20488;-84
2023/05/09 09:10:48;;;;;;;3.07;2.77;;;22.00;71.50;;;;;;6229003;23;20405;-82
2023/05/09 09:13:16;;;;;;;4.30;3.23;;;21.90;72.50;;;;;;6229330;23;20546;-85
2023/05/09 09:15:45;;;;;;;4.47;3.67;;;21.40;72.30;;;;;;6229614;23;20460;-84
2023/05/09 09:18:18;;;;;;;3.07;2.87;;;21.30;73.70;;;;;;6203696;23;20437;-84
2023/05/09 09:20:52;;;;;;;4.10;3.17;;;20.70;75.30;;;;;;6223350;23;20382;-83
2023/05/09 09:23:19;;;;;;;2.83;2.43;;;21.00;76.40;;;;;;6223517;23;20377;-87
2023/05/09 09:25:47;;;;;;;3.43;3.13;;;21.60;75.00;;;;;;6222040;23;20439;-81
2023/05/09 09:28:14;;;;;;;4.10;3.57;;;20.60;79.60;;;;;;6222979;23;20384;-83
2023/05/09 09:30:46;;;;;;;4.23;3.23;;;20.00;82.10;;;;;;6221651;23;20411;-84
2023/05/09 09:33:22;;;;;;;4.33;2.87;;;18.90;87.50;;;;;;6196132;23;20638;-82
2023/05/09 09:35:51;;;;;;;3.83;2.90;;;18.20;90.30;;;;;;6223181;23;20407;-87
2023/05/09 09:38:19;;;;;;;4.67;3.30;;;17.90;90.80;;;;;;6221772;23;20532;-82
2023/05/09 09:40:54;;;;;;;3.93;2.60;;;17.40;90.90;;;;;;6221106;23;20370;-85
2023/05/09 09:43:31;;;;;;;2.43;2.23;;;16.90;92.20;;;;;;6222472;23;20370;-86
2023/05/09 09:46:02;;;;;;;3.83;2.90;;;16.90;95.00;;;;;;6221591;23;20746;-87
2023/05/09 09:48:34;;;;;;;3.00;2.70;;;17.00;95.00;;;;;;6223422;23;20391;-83
2023/05/09 09:51:11;;;;;;;2.87;2.47;;;17.10;96.30;;;;;;6233774;23;20379;-81
2023/05/09 09:53:40;;;;;;;6.17;2.83;;;17.30;96.60;;;;;;6234096;23;20400;-82
2023/05/09 09:56:08;;;;;;;2.40;2.17;;;17.20;96.40;;;;;;6231533;23;20381;-82
2023/05/09 09:58:35;;;;;;;11.80;2.80;;;17.30;95.40;;;;;;6222321;23;20502;-85
2023/05/09 10:01:10;;;;;;;3.63;2.83;;;17.10;96.30;;;;;;6224107;23;20377;-84
2023/05/09 10:03:41;;;;;;;2.63;2.43;;;16.80;97.20;;;;;;6202932;23;20343;-82
2023/05/09 10:06:11;;;;;;;5.43;3.03;;;16.80;98.70;;;;;;6229403;23;20375;-84
2023/05/09 10:08:39;;;;;;;3.00;2.23;;;17.20;99.70;;;;;;6227171;23;20376;-83
2023/05/09 10:11:06;;;;;;;5.43;3.30;;;17.00;98.50;;;;;;6225067;23;20417;-82
2023/05/09 10:13:35;;;;;;;2.90;2.40;;;17.10;97.30;;;;;;6222575;23;20394;-83
2023/05/09 10:16:03;;;;;;;4.27;2.80;;;16.70;98.30;;;;;;6221797;23;20402;-83
2023/05/09 10:18:30;;;;;;;4.03;3.40;;;16.40;98.50;;;;;;6193930;23;20765;-83
2023/05/09 10:21:03;;;;;;;3.87;2.87;;;16.50;99.10;;;;;;6195153;23;20646;-81
2023/05/09 10:23:33;;;;;;;5.20;3.73;;;16.70;99.80;;;;;;6196291;23;20348;-84
2023/05/09 10:26:16;;;;;;;5.33;3.27;;;17.00;98.00;;;;;;6222544;23;20432;-86
2023/05/09 10:28:47;;;;;;;5.07;2.10;;;17.30;99.40;;;;;;6222814;23;20404;-85
2023/05/09 10:31:20;;;;;;;3.23;2.47;;;17.40;98.10;;;;;;6221660;23;20404;-83
2023/05/09 10:33:49;;;;;;;4.10;3.20;;;17.40;98.90;;;;;;6224820;23;20366;-83
2023/05/09 10:36:19;;;;;;;6.03;3.00;;;17.40;98.10;;;;;;6223512;23;20559;-82
2023/05/09 10:38:47;;;;;;;3.00;2.70;;;17.40;97.90;;;;;;6223235;23;20612;-85
2023/05/09 10:41:16;;;;;;;6.90;3.17;;;17.30;97.40;;;;;;6197009;23;20409;-82
2023/05/09 10:43:44;;;;;;;2.90;2.60;;;17.00;97.70;;;;;;6222504;23;20370;-83
2023/05/09 10:46:12;;;;;;;4.37;2.40;;;17.10;98.60;;;;;;6221540;23;20565;-84
2023/05/09 10:48:40;;;;;;;3.93;2.80;;;17.30;98.50;;;;;;6222629;23;20401;-83
2023/05/09 10:51:08;;;;;;;2.90;2.50;;;17.10;98.30;;;;;;6221655;23;20375;-86
2023/05/09 10:53:49;;;;;;;4.60;3.27;;;17.30;98.60;;;;;;6189318;23;20387;-86
2023/05/09 10:56:30;;;;;;;2.50;2.10;;;17.50;98.50;;;;;;6191261;23;20388;-82
2023/05/09 10:58:58;;;;;;;3.27;2.70;;;17.40;96.90;;;;;;6191841;23;20390;-83
2023/05/09 11:01:37;;;;;;;3.80;3.40;;;17.50;98.00;;;;;;6191489;23;20489;-82
2023/05/09 11:04:13;;;;;;;2.47;2.27;;;17.40;96.90;;;;;;6192181;23;20382;-86
2023/05/09 11:06:50;;;;;;;4.10;2.77;;;17.20;97.30;;;;;;6193668;23;20347;-87
2023/05/09 11:09:31;;;;;;;5.67;2.77;;;17.30;97.50;;;;;;6193712;23;20363;-85
2023/05/09 11:12:13;;;;;;;4.10;2.80;;;17.30;97.50;;;;;;6192150;23;20429;-82
2023/05/09 11:14:44;;;;;;;2.90;2.60;;;17.40;98.50;;;;;;6192153;23;20377;-86
2023/05/09 11:17:27;;;;;;;3.73;2.63;;;17.50;96.70;;;;;;6191105;23;20928;-89
2023/05/09 11:20:04;;;;;;;2.97;2.77;;;17.50;97.40;;;;;;6191216;23;20402;-84
2023/05/09 11:22:41;;;;;;;3.40;2.83;;;17.60;96.60;;;;;;6192720;23;20349;-84
2023/05/09 11:25:10;;;;;;;6.73;3.50;;;17.70;98.00;;;;;;6191960;23;20367;-84
2023/05/09 11:27:41;;;;;;;8.13;2.57;;;18.00;96.10;;;;;;6193377;23;20387;-85
2023/05/09 11:30:13;;;;;;;2.50;2.30;;;17.90;96.40;;;;;;6190805;23;20411;-83
2023/05/09 11:32:50;;;;;;;3.60;3.13;;;17.80;97.30;;;;;;6192839;23;20429;-86
2023/05/09 11:35:20;;;;;;;2.90;2.70;;;17.80;97.60;;;;;;6192200;23;20383;-82
2023/05/09 11:38:03;;;;;;;2.90;2.70;;;17.60;99.10;;;;;;6192846;23;20378;-82
2023/05/09 11:40:33;;;;;;;5.97;2.80;;;17.70;97.10;;;;;;6193078;23;20430;-83
2023/05/09 11:43:00;;;;;;;5.40;2.93;;;17.40;96.00;;;;;;6197030;23;20697;-81
2023/05/09 11:45:30;;;;;;;4.57;2.70;;;17.50;95.70;;;;;;6205665;23;20404;-81
2023/05/09 11:47:58;;;;;;;10.93;3.13;;;17.60;95.70;;;;;;6204435;23;20369;-83
2023/05/09 11:50:25;;;;;;;7.13;2.57;;;17.50;96.40;;;;;;6197339;23;20422;-84
2023/05/09 11:52:52;;;;;;;3.20;2.40;;;17.50;95.90;;;;;;6202662;23;20484;-82
2023/05/09 11:55:28;;;;;;;3.10;2.80;;;17.60;95.90;;;;;;6222296;23;20687;-84
2023/05/09 11:57:57;;;;;;;3.03;2.67;;;17.80;96.70;;;;;;6221680;23;20365;-82
2023/05/09 12:00:25;;;;;;;2.80;2.50;;;17.60;95.10;;;;;;6222966;23;20578;-81
2023/05/09 12:02:52;;;;;;;3.23;2.80;;;17.60;95.60;;;;;;6221135;23;20386;-82
2023/05/09 12:05:21;;;;;;;6.93;2.20;;;17.80;94.90;;;;;;6223655;23;20400;-85
2023/05/09 12:07:49;;;;;;;2.40;1.97;;;17.80;95.20;;;;;;6222748;23;20422;-82
2023/05/09 12:10:24;;;;;;;7.63;2.60;;;18.00;94.50;;;;;;6196752;23;20449;-87
2023/05/09 12:12:54;;;;;;;2.60;2.40;;;18.20;94.70;;;;;;6223790;23;20354;-82
2023/05/09 12:15:21;;;;;;;3.00;2.80;;;18.20;94.20;;;;;;6226819;23;20413;-81
2023/05/09 12:18:03;;;;;;;2.73;2.20;;;17.90;94.20;;;;;;6198290;23;20377;-84
2023/05/09 12:20:49;;;;;;;2.67;2.20;;;17.70;95.20;;;;;;6223842;23;20368;-89
2023/05/09 12:23:17;;;;;;;6.03;3.00;;;17.90;94.80;;;;;;6224638;23;20352;-85
2023/05/09 12:26:01;;;;;;;5.27;2.50;;;18.00;94.70;;;;;;6226424;23;20377;-83
2023/05/09 12:28:29;;;;;;;4.23;2.50;;;18.00;93.50;;;;;;6200190;23;20350;-88
2023/05/09 12:30:57;;;;;;;3.93;2.63;;;18.10;93.80;;;;;;6224975;23;20618;-83
2023/05/09 12:33:24;;;;;;;3.40;2.60;;;17.90;92.90;;;;;;6224709;23;20410;-85
2023/05/09 12:36:05;;;;;;;4.97;2.67;;;17.90;93.20;;;;;;6173897;23;20421;-85
2023/05/09 12:38:33;;;;;;;3.90;3.43;;;18.00;92.80;;;;;;6223708;23;20635;-83
2023/05/09 12:41:04;;;;;;;4.30;2.50;;;18.10;93.70;;;;;;6225054;23;20418;-85
2023/05/09 12:43:38;;;;;;;3.10;2.17;;;18.00;92.00;;;;;;6200521;23;20372;-86
2023/05/09 12:46:06;;;;;;;6.77;2.90;;;17.90;92.60;;;;;;6196527;23;20492;-84
2023/05/09 12:48:39;;;;;;;4.80;2.30;;;18.10;94.00;;;;;;6232507;23;20362;-82
2023/05/09 12:51:06;;;;;;;2.70;2.47;;;18.20;93.10;;;;;;6234582;23;20374;-83
2023/05/09 12:53:38;;;;;;;6.23;2.60;;;18.10;93.10;;;;;;6234635;23;20397;-84
2023/05/09 12:56:18;;;;;;;3.83;2.00;;;18.10;92.60;;;;;;6223607;23;20434;-83
2023/05/09 12:58:54;;;;;;;5.70;4.00;;;17.80;93.30;;;;;;6224026;23;20421;-84
2023/05/09 13:01:28;;;;;;;6.60;2.73;;;17.90;93.00;;;;;;6223944;23;20700;-86